sensor_id;sensor_type;location;lat;lon;timestamp;pressure;altitude;pressure_sealevel;temperature;humidity
63552;BME280;49698;48.072;7.800;2023-01-29T00:01:59;100452.13;;;0.78;83.51
63552;BME280;49698;48.072;7.800;2023-01-29T00:04:30;100457.44;;;0.78;83.42
63552;BME280;49698;48.072;7.800;2023-01-29T00:06:59;100453.13;;;0.77;83.40
63552;BME280;49698;48.072;7.800;2023-01-29T00:09:27;100460.06;;;0.78;83.37
63552;BME280;49698;48.072;7.800;2023-01-29T00:11:57;100454.59;;;0.79;83.52
63552;BME280;49698;48.072;7.800;2023-01-29T00:14:24;100456.22;;;0.80;83.38
63552;BME280;49698;48.072;7.800;2023-01-29T00:16:53;100449.91;;;0.81;83.34
63552;BME280;49698;48.072;7.800;2023-01-29T00:19:21;100452.38;;;0.83;83.29
63552;BME280;49698;48.072;7.800;2023-01-29T00:21:50;100461.94;;;0.84;83.37
63552;BME280;49698;48.072;7.800;2023-01-29T00:24:18;100456.66;;;0.84;83.07
63552;BME280;49698;48.072;7.800;2023-01-29T00:26:46;100454.63;;;0.86;82.92
63552;BME280;49698;48.072;7.800;2023-01-29T00:29:15;100449.78;;;0.89;83.01
63552;BME280;49698;48.072;7.800;2023-01-29T00:31:44;100449.56;;;0.91;82.64
63552;BME280;49698;48.072;7.800;2023-01-29T00:34:14;100449.56;;;0.91;82.79
63552;BME280;49698;48.072;7.800;2023-01-29T00:36:42;100457.13;;;0.94;82.62
63552;BME280;49698;48.072;7.800;2023-01-29T00:39:13;100460.38;;;0.96;82.27
63552;BME280;49698;48.072;7.800;2023-01-29T00:41:41;100462.84;;;0.97;82.43
63552;BME280;49698;48.072;7.800;2023-01-29T00:44:26;100453.09;;;0.98;82.17
63552;BME280;49698;48.072;7.800;2023-01-29T00:47:11;100453.91;;;0.98;82.17
63552;BME280;49698;48.072;7.800;2023-01-29T00:49:53;100445.94;;;0.98;82.40
63552;BME280;49698;48.072;7.800;2023-01-29T00:52:22;100445.94;;;0.98;82.18
63552;BME280;49698;48.072;7.800;2023-01-29T00:54:55;100440.44;;;1.00;82.08
63552;BME280;49698;48.072;7.800;2023-01-29T00:57:25;100439.84;;;0.98;82.15
63552;BME280;49698;48.072;7.800;2023-01-29T00:59:53;100438.00;;;0.98;82.08
63552;BME280;49698;48.072;7.800;2023-01-29T01:02:22;100433.75;;;0.97;82.02
63552;BME280;49698;48.072;7.800;2023-01-29T01:05:09;100433.75;;;0.97;82.03
63552;BME280;49698;48.072;7.800;2023-01-29T01:07:45;100438.81;;;0.99;82.19
63552;BME280;49698;48.072;7.800;2023-01-29T01:10:16;100434.56;;;0.98;82.01
63552;BME280;49698;48.072;7.800;2023-01-29T01:12:52;100437.56;;;0.95;82.07
63552;BME280;49698;48.072;7.800;2023-01-29T01:15:21;100431.66;;;0.93;82.12
63552;BME280;49698;48.072;7.800;2023-01-29T01:17:53;100435.94;;;0.94;81.95
63552;BME280;49698;48.072;7.800;2023-01-29T01:20:22;100446.53;;;0.94;82.22
63552;BME280;49698;48.072;7.800;2023-01-29T01:22:52;100445.09;;;0.91;82.04
63552;BME280;49698;48.072;7.800;2023-01-29T01:25:23;100441.63;;;0.91;82.36
63552;BME280;49698;48.072;7.800;2023-01-29T01:27:52;100445.28;;;0.90;82.19
63552;BME280;49698;48.072;7.800;2023-01-29T01:30:21;100433.91;;;0.89;82.19
63552;BME280;49698;48.072;7.800;2023-01-29T01:32:50;100441.41;;;0.86;82.20
63552;BME280;49698;48.072;7.800;2023-01-29T01:35:18;100441.56;;;0.84;82.30
63552;BME280;49698;48.072;7.800;2023-01-29T01:37:46;100438.91;;;0.78;82.49
63552;BME280;49698;48.072;7.800;2023-01-29T01:40:17;100444.97;;;0.71;82.41
63552;BME280;49698;48.072;7.800;2023-01-29T01:42:48;100437.78;;;0.65;82.58
63552;BME280;49698;48.072;7.800;2023-01-29T01:45:27;100449.16;;;0.59;83.16
63552;BME280;49698;48.072;7.800;2023-01-29T01:47:58;100447.06;;;0.55;83.05
63552;BME280;49698;48.072;7.800;2023-01-29T01:50:34;100452.75;;;0.52;83.03
63552;BME280;49698;48.072;7.800;2023-01-29T01:53:06;100456.41;;;0.51;83.20
63552;BME280;49698;48.072;7.800;2023-01-29T01:55:37;100451.13;;;0.51;82.97
63552;BME280;49698;48.072;7.800;2023-01-29T01:58:09;100446.00;;;0.49;83.07
63552;BME280;49698;48.072;7.800;2023-01-29T02:00:38;100445.19;;;0.48;83.24
63552;BME280;49698;48.072;7.800;2023-01-29T02:03:08;100437.44;;;0.47;83.07
63552;BME280;49698;48.072;7.800;2023-01-29T02:05:56;100442.09;;;0.45;83.10
63552;BME280;49698;48.072;7.800;2023-01-29T02:08:48;100437.19;;;0.42;83.22
63552;BME280;49698;48.072;7.800;2023-01-29T02:11:37;100443.69;;;0.39;83.14
63552;BME280;49698;48.072;7.800;2023-01-29T02:14:06;100443.25;;;0.36;83.24
63552;BME280;49698;48.072;7.800;2023-01-29T02:16:35;100456.84;;;0.33;83.13
63552;BME280;49698;48.072;7.800;2023-01-29T02:19:05;100460.88;;;0.29;83.14
63552;BME280;49698;48.072;7.800;2023-01-29T02:24:36;100460.00;;;0.21;83.16
63552;BME280;49698;48.072;7.800;2023-01-29T02:27:11;100459.38;;;0.19;83.22
63552;BME280;49698;48.072;7.800;2023-01-29T02:29:53;100466.03;;;0.15;83.19
63552;BME280;49698;48.072;7.800;2023-01-29T02:32:29;100460.50;;;0.10;83.17
63552;BME280;49698;48.072;7.800;2023-01-29T02:35:16;100460.69;;;0.09;83.19
63552;BME280;49698;48.072;7.800;2023-01-29T02:38:08;100456.22;;;0.09;83.17
63552;BME280;49698;48.072;7.800;2023-01-29T02:40:42;100466.34;;;0.06;83.22
63552;BME280;49698;48.072;7.800;2023-01-29T02:43:23;100466.56;;;0.04;83.16
63552;BME280;49698;48.072;7.800;2023-01-29T02:46:01;100470.19;;;0.03;83.07
63552;BME280;49698;48.072;7.800;2023-01-29T02:48:39;100463.28;;;0.02;83.04
63552;BME280;49698;48.072;7.800;2023-01-29T02:51:14;100464.44;;;-0.01;82.92
63552;BME280;49698;48.072;7.800;2023-01-29T02:53:53;100471.94;;;-0.04;82.94
63552;BME280;49698;48.072;7.800;2023-01-29T02:56:28;100466.84;;;-0.06;83.02
63552;BME280;49698;48.072;7.800;2023-01-29T02:59:04;100475.97;;;-0.08;82.75
63552;BME280;49698;48.072;7.800;2023-01-29T03:01:40;100469.84;;;-0.09;82.83
63552;BME280;49698;48.072;7.800;2023-01-29T03:04:20;100473.31;;;-0.08;82.86
63552;BME280;49698;48.072;7.800;2023-01-29T03:06:52;100474.97;;;-0.07;82.76
63552;BME280;49698;48.072;7.800;2023-01-29T03:09:27;100476.59;;;-0.06;82.60
63552;BME280;49698;48.072;7.800;2023-01-29T03:12:02;100474.97;;;-0.07;82.53
63552;BME280;49698;48.072;7.800;2023-01-29T03:14:47;100477.41;;;-0.06;82.61
63552;BME280;49698;48.072;7.800;2023-01-29T03:17:39;100483.88;;;-0.08;82.55
63552;BME280;49698;48.072;7.800;2023-01-29T03:20:13;100472.06;;;-0.12;82.40
63552;BME280;49698;48.072;7.800;2023-01-29T03:22:45;100477.97;;;-0.10;82.35
63552;BME280;49698;48.072;7.800;2023-01-29T03:25:16;100473.72;;;-0.11;82.21
63552;BME280;49698;48.072;7.800;2023-01-29T03:28:03;100481.00;;;-0.13;82.07
63552;BME280;49698;48.072;7.800;2023-01-29T03:30:52;100473.25;;;-0.15;82.07
63552;BME280;49698;48.072;7.800;2023-01-29T03:33:47;100471.59;;;-0.16;81.93
63552;BME280;49698;48.072;7.800;2023-01-29T03:36:19;100472.44;;;-0.15;82.15
63552;BME280;49698;48.072;7.800;2023-01-29T03:38:48;100476.88;;;-0.16;82.12
63552;BME280;49698;48.072;7.800;2023-01-29T03:41:22;100480.53;;;-0.17;82.03
63552;BME280;49698;48.072;7.800;2023-01-29T03:43:57;100483.84;;;-0.15;82.05
63552;BME280;49698;48.072;7.800;2023-01-29T03:46:35;100476.06;;;-0.16;82.11
63552;BME280;49698;48.072;7.800;2023-01-29T03:49:10;100484.00;;;-0.16;81.85
63552;BME280;49698;48.072;7.800;2023-01-29T03:51:45;100481.34;;;-0.16;81.78
63552;BME280;49698;48.072;7.800;2023-01-29T03:54:24;100485.81;;;-0.17;81.68
63552;BME280;49698;48.072;7.800;2023-01-29T03:56:56;100479.72;;;-0.17;81.77
63552;BME280;49698;48.072;7.800;2023-01-29T03:59:35;100475.63;;;-0.20;81.51
63552;BME280;49698;48.072;7.800;2023-01-29T04:02:30;100476.03;;;-0.23;81.56
63552;BME280;49698;48.072;7.800;2023-01-29T04:05:12;100484.94;;;-0.24;81.71
63552;BME280;49698;48.072;7.800;2023-01-29T04:07:56;100488.59;;;-0.25;81.62
63552;BME280;49698;48.072;7.800;2023-01-29T04:10:30;100489.41;;;-0.25;81.47
63552;BME280;49698;48.072;7.800;2023-01-29T04:13:06;100483.28;;;-0.25;81.50
63552;BME280;49698;48.072;7.800;2023-01-29T04:15:37;100482.94;;;-0.22;81.42
63552;BME280;49698;48.072;7.800;2023-01-29T04:18:08;100488.22;;;-0.22;81.41
63552;BME280;49698;48.072;7.800;2023-01-29T04:21:00;100487.41;;;-0.22;81.38
63552;BME280;49698;48.072;7.800;2023-01-29T04:23:28;100487.19;;;-0.21;81.23
63552;BME280;49698;48.072;7.800;2023-01-29T04:26:14;100484.56;;;-0.21;81.23
63552;BME280;49698;48.072;7.800;2023-01-29T04:29:13;100486.59;;;-0.23;81.32
63552;BME280;49698;48.072;7.800;2023-01-29T04:31:50;100484.13;;;-0.25;81.36
63552;BME280;49698;48.072;7.800;2023-01-29T04:34:22;100479.66;;;-0.24;81.39
63552;BME280;49698;48.072;7.800;2023-01-29T04:37:01;100478.00;;;-0.25;81.28
63552;BME280;49698;48.072;7.800;2023-01-29T04:39:42;100479.84;;;-0.26;81.34
63552;BME280;49698;48.072;7.800;2023-01-29T04:42:19;100471.91;;;-0.26;81.26
63552;BME280;49698;48.072;7.800;2023-01-29T04:44:57;100478.22;;;-0.27;81.37
63552;BME280;49698;48.072;7.800;2023-01-29T04:47:31;100475.72;;;-0.28;81.44
63552;BME280;49698;48.072;7.800;2023-01-29T04:50:09;100474.09;;;-0.29;81.19
63552;BME280;49698;48.072;7.800;2023-01-29T04:52:47;100466.38;;;-0.31;81.32
63552;BME280;49698;48.072;7.800;2023-01-29T04:55:21;100467.19;;;-0.30;81.45
63552;BME280;49698;48.072;7.800;2023-01-29T04:57:57;100466.38;;;-0.31;81.32
63552;BME280;49698;48.072;7.800;2023-01-29T05:00:32;100461.72;;;-0.29;81.44
63552;BME280;49698;48.072;7.800;2023-01-29T05:03:02;100468.63;;;-0.28;81.22
63552;BME280;49698;48.072;7.800;2023-01-29T05:05:30;100464.34;;;-0.29;81.26
63552;BME280;49698;48.072;7.800;2023-01-29T05:07:59;100480.41;;;-0.30;81.43
63552;BME280;49698;48.072;7.800;2023-01-29T05:10:27;100475.13;;;-0.30;81.43
63552;BME280;49698;48.072;7.800;2023-01-29T05:12:59;100486.31;;;-0.28;81.42
63552;BME280;49698;48.072;7.800;2023-01-29T05:15:33;100488.13;;;-0.29;81.69
63552;BME280;49698;48.072;7.800;2023-01-29T05:18:02;100482.22;;;-0.31;81.24
63552;BME280;49698;48.072;7.800;2023-01-29T05:20:35;100484.22;;;-0.33;81.32
63552;BME280;49698;48.072;7.800;2023-01-29T05:23:09;100480.97;;;-0.35;81.31
63552;BME280;49698;48.072;7.800;2023-01-29T05:25:37;100479.94;;;-0.34;81.44
63552;BME280;49698;48.072;7.800;2023-01-29T05:28:05;100480.97;;;-0.35;81.63
63552;BME280;49698;48.072;7.800;2023-01-29T05:30:36;100474.03;;;-0.36;81.65
63552;BME280;49698;48.072;7.800;2023-01-29T05:33:11;100473.03;;;-0.35;81.31
63552;BME280;49698;48.072;7.800;2023-01-29T05:35:39;100479.94;;;-0.34;81.46
63552;BME280;49698;48.072;7.800;2023-01-29T05:38:08;100474.66;;;-0.34;81.25
63552;BME280;49698;48.072;7.800;2023-01-29T05:40:37;100468.13;;;-0.38;81.27
63552;BME280;49698;48.072;7.800;2023-01-29T05:43:12;100472.13;;;-0.42;81.50
63552;BME280;49698;48.072;7.800;2023-01-29T05:45:41;100477.78;;;-0.45;81.58
63552;BME280;49698;48.072;7.800;2023-01-29T05:48:09;100487.88;;;-0.48;81.74
63552;BME280;49698;48.072;7.800;2023-01-29T05:50:37;100485.44;;;-0.50;81.34
63552;BME280;49698;48.072;7.800;2023-01-29T05:53:05;100491.72;;;-0.51;81.81
63552;BME280;49698;48.072;7.800;2023-01-29T05:55:34;100503.94;;;-0.50;81.38
63552;BME280;49698;48.072;7.800;2023-01-29T05:58:02;100500.63;;;-0.52;81.52
63552;BME280;49698;48.072;7.800;2023-01-29T06:00:31;100490.06;;;-0.52;81.68
63552;BME280;49698;48.072;7.800;2023-01-29T06:02:59;100497.81;;;-0.51;81.45
63552;BME280;49698;48.072;7.800;2023-01-29T06:05:27;100493.38;;;-0.50;81.62
63552;BME280;49698;48.072;7.800;2023-01-29T06:07:55;100489.72;;;-0.49;81.46
63552;BME280;49698;48.072;7.800;2023-01-29T06:10:23;100473.06;;;-0.50;81.76
63552;BME280;49698;48.072;7.800;2023-01-29T06:12:52;100480.78;;;-0.48;81.66
63552;BME280;49698;48.072;7.800;2023-01-29T06:15:20;100472.84;;;-0.48;81.50
63552;BME280;49698;48.072;7.800;2023-01-29T06:17:48;100464.31;;;-0.50;81.40
63552;BME280;49698;48.072;7.800;2023-01-29T06:20:16;100464.69;;;-0.53;81.47
63552;BME280;49698;48.072;7.800;2023-01-29T06:22:45;100464.22;;;-0.57;81.61
63552;BME280;49698;48.072;7.800;2023-01-29T06:25:13;100465.41;;;-0.59;81.55
63552;BME280;49698;48.072;7.800;2023-01-29T06:27:41;100472.69;;;-0.61;81.64
63552;BME280;49698;48.072;7.800;2023-01-29T06:30:11;100474.69;;;-0.63;81.76
63552;BME280;49698;48.072;7.800;2023-01-29T06:32:39;100477.53;;;-0.65;81.74
63552;BME280;49698;48.072;7.800;2023-01-29T06:35:08;100485.63;;;-0.66;81.87
63552;BME280;49698;48.072;7.800;2023-01-29T06:37:36;100486.00;;;-0.69;82.20
63552;BME280;49698;48.072;7.800;2023-01-29T06:40:05;100493.28;;;-0.71;82.39
63552;BME280;49698;48.072;7.800;2023-01-29T06:42:34;100488.34;;;-0.75;82.40
63552;BME280;49698;48.072;7.800;2023-01-29T06:45:02;100497.47;;;-0.77;82.67
63552;BME280;49698;48.072;7.800;2023-01-29T06:47:31;100492.72;;;-0.82;82.62
63552;BME280;49698;48.072;7.800;2023-01-29T06:49:59;100502.44;;;-0.82;82.56
63552;BME280;49698;48.072;7.800;2023-01-29T06:52:27;100513.22;;;-0.84;82.58
63552;BME280;49698;48.072;7.800;2023-01-29T06:54:55;100519.50;;;-0.85;82.81
63552;BME280;49698;48.072;7.800;2023-01-29T06:57:23;100512.56;;;-0.86;82.62
63552;BME280;49698;48.072;7.800;2023-01-29T06:59:51;100516.19;;;-0.87;82.62
63552;BME280;49698;48.072;7.800;2023-01-29T07:02:19;100514.56;;;-0.88;82.60
63552;BME280;49698;48.072;7.800;2023-01-29T07:04:48;100529.59;;;-0.88;82.72
63552;BME280;49698;48.072;7.800;2023-01-29T07:07:16;100528.13;;;-0.91;82.68
63552;BME280;49698;48.072;7.800;2023-01-29T07:09:44;100529.28;;;-0.93;82.50
63552;BME280;49698;48.072;7.800;2023-01-29T07:12:12;100527.50;;;-0.93;82.57
63552;BME280;49698;48.072;7.800;2023-01-29T07:14:41;100545.97;;;-0.93;82.50
63552;BME280;49698;48.072;7.800;2023-01-29T07:17:09;100537.22;;;-0.93;82.54
63552;BME280;49698;48.072;7.800;2023-01-29T07:19:37;100546.13;;;-0.94;82.67
63552;BME280;49698;48.072;7.800;2023-01-29T07:22:06;100545.31;;;-0.95;82.18
63552;BME280;49698;48.072;7.800;2023-01-29T07:24:34;100541.50;;;-0.92;82.48
63552;BME280;49698;48.072;7.800;2023-01-29T07:27:02;100538.31;;;-0.88;82.08
63552;BME280;49698;48.072;7.800;2023-01-29T07:29:30;100547.53;;;-0.84;82.00
63552;BME280;49698;48.072;7.800;2023-01-29T07:31:58;100547.78;;;-0.79;81.78
63552;BME280;49698;48.072;7.800;2023-01-29T07:34:26;100546.28;;;-0.73;81.42
63552;BME280;49698;48.072;7.800;2023-01-29T07:36:54;100546.19;;;-0.65;81.27
63552;BME280;49698;48.072;7.800;2023-01-29T07:39:24;100542.63;;;-0.57;80.77
63552;BME280;49698;48.072;7.800;2023-01-29T07:41:52;100537.41;;;-0.51;80.53
63552;BME280;49698;48.072;7.800;2023-01-29T07:44:21;100538.53;;;-0.45;80.36
63552;BME280;49698;48.072;7.800;2023-01-29T07:46:49;100542.44;;;-0.41;80.20
63552;BME280;49698;48.072;7.800;2023-01-29T07:49:17;100540.06;;;-0.36;80.11
63552;BME280;49698;48.072;7.800;2023-01-29T07:51:45;100538.31;;;-0.29;79.84
63552;BME280;49698;48.072;7.800;2023-01-29T07:54:13;100539.22;;;-0.21;79.68
63552;BME280;49698;48.072;7.800;2023-01-29T07:56:42;100546.44;;;-0.15;79.42
63552;BME280;49698;48.072;7.800;2023-01-29T07:59:10;100542.41;;;-0.11;79.34
63552;BME280;49698;48.072;7.800;2023-01-29T08:01:38;100541.66;;;-0.05;79.14
63552;BME280;49698;48.072;7.800;2023-01-29T08:04:06;100552.53;;;0.00;78.77
63552;BME280;49698;48.072;7.800;2023-01-29T08:06:34;100559.69;;;0.06;78.69
63552;BME280;49698;48.072;7.800;2023-01-29T08:09:02;100570.81;;;0.16;78.47
63552;BME280;49698;48.072;7.800;2023-01-29T08:11:30;100578.06;;;0.29;78.00
63552;BME280;49698;48.072;7.800;2023-01-29T08:13:59;100582.66;;;0.42;77.68
63552;BME280;49698;48.072;7.800;2023-01-29T08:16:27;100586.28;;;0.56;77.00
63552;BME280;49698;48.072;7.800;2023-01-29T08:18:55;100585.59;;;0.68;76.88
63552;BME280;49698;48.072;7.800;2023-01-29T08:21:23;100584.50;;;0.84;76.51
63552;BME280;49698;48.072;7.800;2023-01-29T08:23:51;100584.56;;;0.91;75.90
63552;BME280;49698;48.072;7.800;2023-01-29T08:26:19;100586.63;;;0.95;75.82
63552;BME280;49698;48.072;7.800;2023-01-29T08:28:47;100586.03;;;0.93;75.46
63552;BME280;49698;48.072;7.800;2023-01-29T08:31:17;100596.41;;;0.95;75.52
63552;BME280;49698;48.072;7.800;2023-01-29T08:33:48;100602.34;;;0.97;75.42
63552;BME280;49698;48.072;7.800;2023-01-29T08:36:16;100601.72;;;0.95;75.73
63552;BME280;49698;48.072;7.800;2023-01-29T08:38:44;100613.69;;;0.91;75.68
63552;BME280;49698;48.072;7.800;2023-01-29T08:41:12;100609.41;;;0.90;75.87
63552;BME280;49698;48.072;7.800;2023-01-29T08:43:40;100611.25;;;0.89;76.04
63552;BME280;49698;48.072;7.800;2023-01-29T08:46:09;100609.78;;;0.87;75.98
63552;BME280;49698;48.072;7.800;2023-01-29T08:48:38;100608.16;;;0.86;76.11
63552;BME280;49698;48.072;7.800;2023-01-29T08:51:07;100610.81;;;0.86;76.03
63552;BME280;49698;48.072;7.800;2023-01-29T08:53:35;100610.16;;;0.84;76.03
63552;BME280;49698;48.072;7.800;2023-01-29T08:56:04;100613.25;;;0.87;76.09
63552;BME280;49698;48.072;7.800;2023-01-29T08:58:32;100618.63;;;0.94;75.77
63552;BME280;49698;48.072;7.800;2023-01-29T09:01:05;100625.34;;;0.96;75.53
63552;BME280;49698;48.072;7.800;2023-01-29T09:03:33;100620.88;;;0.97;75.45
63552;BME280;49698;48.072;7.800;2023-01-29T09:06:03;100633.09;;;0.98;75.43
63552;BME280;49698;48.072;7.800;2023-01-29T09:08:31;100635.47;;;0.93;74.92
63552;BME280;49698;48.072;7.800;2023-01-29T09:10:59;100636.25;;;0.87;75.18
63552;BME280;49698;48.072;7.800;2023-01-29T09:13:27;100634.63;;;0.86;74.93
63552;BME280;49698;48.072;7.800;2023-01-29T09:15:57;100637.88;;;0.88;74.76
63552;BME280;49698;48.072;7.800;2023-01-29T09:18:26;100635.06;;;0.89;74.71
63552;BME280;49698;48.072;7.800;2023-01-29T09:20:54;100636.78;;;0.97;74.43
63552;BME280;49698;48.072;7.800;2023-01-29T09:23:24;100634.75;;;0.99;74.15
63552;BME280;49698;48.072;7.800;2023-01-29T09:25:52;100642.47;;;1.01;74.15
63552;BME280;49698;48.072;7.800;2023-01-29T09:28:20;100646.59;;;1.03;73.95
63552;BME280;49698;48.072;7.800;2023-01-29T09:30:49;100642.53;;;1.07;73.67
63552;BME280;49698;48.072;7.800;2023-01-29T09:33:17;100640.16;;;1.12;73.90
63552;BME280;49698;48.072;7.800;2023-01-29T09:35:45;100628.78;;;1.18;73.59
63552;BME280;49698;48.072;7.800;2023-01-29T09:38:13;100634.16;;;1.25;73.29
63552;BME280;49698;48.072;7.800;2023-01-29T09:40:49;100626.00;;;1.27;72.92
63552;BME280;49698;48.072;7.800;2023-01-29T09:43:22;100628.03;;;1.25;72.97
63552;BME280;49698;48.072;7.800;2023-01-29T09:45:54;100625.25;;;1.33;73.04
63552;BME280;49698;48.072;7.800;2023-01-29T09:48:26;100628.56;;;1.41;72.66
63552;BME280;49698;48.072;7.800;2023-01-29T09:50:57;100623.75;;;1.52;72.59
63552;BME280;49698;48.072;7.800;2023-01-29T09:53:29;100627.69;;;1.62;72.16
63552;BME280;49698;48.072;7.800;2023-01-29T09:56:05;100619.19;;;1.74;71.55
63552;BME280;49698;48.072;7.800;2023-01-29T09:58:38;100620.69;;;1.83;71.60
63552;BME280;49698;48.072;7.800;2023-01-29T10:01:12;100626.06;;;1.96;70.89
63552;BME280;49698;48.072;7.800;2023-01-29T10:04:15;100620.41;;;2.06;70.86
63552;BME280;49698;48.072;7.800;2023-01-29T10:07:00;100617.84;;;2.26;70.19
63552;BME280;49698;48.072;7.800;2023-01-29T10:09:59;100618.94;;;2.44;69.89
63552;BME280;49698;48.072;7.800;2023-01-29T10:15:32;100617.00;;;3.06;68.18
63552;BME280;49698;48.072;7.800;2023-01-29T10:18:21;100596.94;;;3.50;66.93
63552;BME280;49698;48.072;7.800;2023-01-29T10:21:01;100601.16;;;4.36;64.56
63552;BME280;49698;48.072;7.800;2023-01-29T10:23:35;100590.44;;;5.12;62.21
63552;BME280;49698;48.072;7.800;2023-01-29T10:26:10;100584.97;;;5.87;60.33
63552;BME280;49698;48.072;7.800;2023-01-29T10:28:41;100568.38;;;6.52;58.53
63552;BME280;49698;48.072;7.800;2023-01-29T10:31:14;100558.47;;;6.83;57.64
63552;BME280;49698;48.072;7.800;2023-01-29T10:33:47;100559.66;;;7.10;56.93
63552;BME280;49698;48.072;7.800;2023-01-29T10:36:31;100544.69;;;7.33;56.40
63552;BME280;49698;48.072;7.800;2023-01-29T10:38:59;100542.56;;;7.23;56.39
63552;BME280;49698;48.072;7.800;2023-01-29T10:41:44;100531.78;;;7.18;55.97
63552;BME280;49698;48.072;7.800;2023-01-29T10:44:24;100535.13;;;7.49;55.69
63552;BME280;49698;48.072;7.800;2023-01-29T10:47:11;100534.00;;;7.85;54.89
63552;BME280;49698;48.072;7.800;2023-01-29T10:49:57;100527.25;;;8.23;53.84
63552;BME280;49698;48.072;7.800;2023-01-29T10:52:38;100523.53;;;8.69;52.61
63552;BME280;49698;48.072;7.800;2023-01-29T10:55:22;100531.84;;;8.68;52.05
63552;BME280;49698;48.072;7.800;2023-01-29T10:58:00;100529.28;;;8.44;52.63
63552;BME280;49698;48.072;7.800;2023-01-29T11:00:35;100535.88;;;8.25;53.16
63552;BME280;49698;48.072;7.800;2023-01-29T11:03:14;100534.00;;;7.85;53.69
63552;BME280;49698;48.072;7.800;2023-01-29T11:05:56;100537.94;;;7.30;54.77
63552;BME280;49698;48.072;7.800;2023-01-29T11:08:31;100533.25;;;6.79;55.77
63552;BME280;49698;48.072;7.800;2023-01-29T11:11:05;100535.72;;;6.50;56.45
63552;BME280;49698;48.072;7.800;2023-01-29T11:13:37;100527.78;;;6.32;56.44
63552;BME280;49698;48.072;7.800;2023-01-29T11:16:08;100530.31;;;6.27;56.69
63552;BME280;49698;48.072;7.800;2023-01-29T11:18:52;100527.94;;;6.19;56.68
63552;BME280;49698;48.072;7.800;2023-01-29T11:21:21;100533.59;;;6.10;56.68
63552;BME280;49698;48.072;7.800;2023-01-29T11:23:50;100532.16;;;6.26;56.23
63552;BME280;49698;48.072;7.800;2023-01-29T11:26:34;100524.19;;;6.38;55.77
63552;BME280;49698;48.072;7.800;2023-01-29T11:29:03;100513.19;;;6.46;55.19
63552;BME280;49698;48.072;7.800;2023-01-29T11:31:37;100518.75;;;6.45;55.07
63552;BME280;49698;48.072;7.800;2023-01-29T11:34:19;100512.16;;;6.47;54.89
63552;BME280;49698;48.072;7.800;2023-01-29T11:36:55;100511.13;;;6.48;54.14
63552;BME280;49698;48.072;7.800;2023-01-29T11:39:25;100503.16;;;6.30;54.63
63552;BME280;49698;48.072;7.800;2023-01-29T11:41:56;100500.09;;;6.15;54.59
63552;BME280;49698;48.072;7.800;2023-01-29T11:44:29;100505.81;;;6.00;55.26
63552;BME280;49698;48.072;7.800;2023-01-29T11:47:10;100512.56;;;5.84;55.25
63552;BME280;49698;48.072;7.800;2023-01-29T11:49:43;100513.31;;;5.73;55.32
63552;BME280;49698;48.072;7.800;2023-01-29T11:52:13;100515.84;;;5.68;55.84
63552;BME280;49698;48.072;7.800;2023-01-29T11:54:44;100512.81;;;5.64;55.81
63552;BME280;49698;48.072;7.800;2023-01-29T11:57:35;100504.53;;;5.54;56.02
63552;BME280;49698;48.072;7.800;2023-01-29T12:00:09;100498.66;;;5.45;56.10
63552;BME280;49698;48.072;7.800;2023-01-29T12:02:48;100498.06;;;5.43;56.30
63552;BME280;49698;48.072;7.800;2023-01-29T12:05:22;100504.06;;;5.38;56.56
63552;BME280;49698;48.072;7.800;2023-01-29T12:07:52;100497.63;;;5.28;56.94
63552;BME280;49698;48.072;7.800;2023-01-29T12:10:30;100505.56;;;5.09;57.16
63552;BME280;49698;48.072;7.800;2023-01-29T12:13:06;100495.47;;;4.93;57.36
63552;BME280;49698;48.072;7.800;2023-01-29T12:15:39;100486.31;;;4.89;57.37
63552;BME280;49698;48.072;7.800;2023-01-29T12:18:13;100485.25;;;4.90;57.30
63552;BME280;49698;48.072;7.800;2023-01-29T12:20:45;100479.66;;;4.98;56.84
63552;BME280;49698;48.072;7.800;2023-01-29T12:23:24;100470.69;;;5.11;56.84
63552;BME280;49698;48.072;7.800;2023-01-29T12:26:00;100467.53;;;5.21;56.46
63552;BME280;49698;48.072;7.800;2023-01-29T12:28:36;100479.75;;;5.28;56.08
63552;BME280;49698;48.072;7.800;2023-01-29T12:31:21;100474.72;;;5.20;56.17
63552;BME280;49698;48.072;7.800;2023-01-29T12:33:56;100477.75;;;5.05;56.96
63552;BME280;49698;48.072;7.800;2023-01-29T12:36:30;100472.69;;;4.97;57.31
63552;BME280;49698;48.072;7.800;2023-01-29T12:38:59;100476.16;;;4.98;57.47
63552;BME280;49698;48.072;7.800;2023-01-29T12:41:32;100478.59;;;4.99;57.10
63552;BME280;49698;48.072;7.800;2023-01-29T12:44:06;100462.19;;;5.02;57.05
63552;BME280;49698;48.072;7.800;2023-01-29T12:46:41;100461.59;;;5.00;57.17
63552;BME280;49698;48.072;7.800;2023-01-29T12:49:14;100454.03;;;4.97;57.14
63552;BME280;49698;48.072;7.800;2023-01-29T12:51:49;100448.66;;;5.04;57.17
63552;BME280;49698;48.072;7.800;2023-01-29T12:54:22;100444.66;;;5.13;56.84
63552;BME280;49698;48.072;7.800;2023-01-29T12:56:57;100441.75;;;5.14;56.75
63552;BME280;49698;48.072;7.800;2023-01-29T12:59:30;100432.59;;;5.10;57.07
63552;BME280;49698;48.072;7.800;2023-01-29T13:02:01;100437.03;;;4.98;56.89
63552;BME280;49698;48.072;7.800;2023-01-29T13:04:37;100433.44;;;4.86;57.32
63552;BME280;49698;48.072;7.800;2023-01-29T13:07:10;100430.66;;;4.81;57.30
63552;BME280;49698;48.072;7.800;2023-01-29T13:09:42;100423.91;;;4.78;57.21
63552;BME280;49698;48.072;7.800;2023-01-29T13:12:14;100428.03;;;4.74;57.64
63552;BME280;49698;48.072;7.800;2023-01-29T13:14:47;100421.13;;;4.66;57.74
63552;BME280;49698;48.072;7.800;2023-01-29T13:17:22;100407.28;;;4.58;57.89
63552;BME280;49698;48.072;7.800;2023-01-29T13:19:52;100416.09;;;4.58;57.87
63552;BME280;49698;48.072;7.800;2023-01-29T13:22:24;100402.63;;;4.72;57.68
63552;BME280;49698;48.072;7.800;2023-01-29T13:24:53;100402.53;;;4.85;57.37
63552;BME280;49698;48.072;7.800;2023-01-29T13:27:31;100386.69;;;4.90;57.13
63552;BME280;49698;48.072;7.800;2023-01-29T13:30:00;100380.63;;;5.01;56.79
63552;BME280;49698;48.072;7.800;2023-01-29T13:32:30;100388.75;;;5.06;56.76